sensor_id;sensor_type;location;lat;lon;timestamp;P1;durP1;ratioP1;P2;durP2;ratioP2
12603;SDS011;6367;52.508;13.284;2022-10-16T00:00:38;2.10;;;2.00;;
12603;SDS011;6367;52.508;13.284;2022-10-16T00:03:05;1.87;;;1.77;;
12603;SDS011;6367;52.508;13.284;2022-10-16T00:05:32;2.30;;;2.17;;
12603;SDS011;6367;52.508;13.284;2022-10-16T00:07:58;2.37;;;2.20;;
12603;SDS011;6367;52.508;13.284;2022-10-16T00:10:24;2.37;;;2.17;;
12603;SDS011;6367;52.508;13.284;2022-10-16T00:12:49;2.67;;;2.47;;
12603;SDS011;6367;52.508;13.284;2022-10-16T00:15:15;2.10;;;2.00;;
12603;SDS011;6367;52.508;13.284;2022-10-16T00:17:41;3.07;;;2.33;;
12603;SDS011;6367;52.508;13.284;2022-10-16T00:20:06;2.20;;;2.03;;
12603;SDS011;6367;52.508;13.284;2022-10-16T00:22:32;2.10;;;1.90;;
12603;SDS011;6367;52.508;13.284;2022-10-16T00:24:58;2.50;;;2.07;;
12603;SDS011;6367;52.508;13.284;2022-10-16T00:27:24;2.13;;;2.03;;
12603;SDS011;6367;52.508;13.284;2022-10-16T00:29:52;2.27;;;2.07;;
12603;SDS011;6367;52.508;13.284;2022-10-16T00:32:19;1.90;;;1.80;;
12603;SDS011;6367;52.508;13.284;2022-10-16T00:34:45;1.90;;;1.80;;
12603;SDS011;6367;52.508;13.284;2022-10-16T00:37:11;2.23;;;2.10;;
12603;SDS011;6367;52.508;13.284;2022-10-16T00:39:37;1.77;;;1.67;;
12603;SDS011;6367;52.508;13.284;2022-10-16T00:42:02;1.97;;;1.87;;
12603;SDS011;6367;52.508;13.284;2022-10-16T00:44:48;1.70;;;1.60;;
12603;SDS011;6367;52.508;13.284;2022-10-16T00:47:34;1.80;;;1.70;;
12603;SDS011;6367;52.508;13.284;2022-10-16T00:50:08;2.00;;;1.90;;
12603;SDS011;6367;52.508;13.284;2022-10-16T00:52:39;2.00;;;1.90;;
12603;SDS011;6367;52.508;13.284;2022-10-16T00:55:09;1.97;;;1.73;;
12603;SDS011;6367;52.508;13.284;2022-10-16T00:57:35;1.73;;;1.63;;
12603;SDS011;6367;52.508;13.284;2022-10-16T01:00:02;2.00;;;1.90;;
12603;SDS011;6367;52.508;13.284;2022-10-16T01:02:30;1.97;;;1.87;;
12603;SDS011;6367;52.508;13.284;2022-10-16T01:04:55;2.20;;;2.00;;
12603;SDS011;6367;52.508;13.284;2022-10-16T01:07:43;1.90;;;1.80;;
12603;SDS011;6367;52.508;13.284;2022-10-16T01:10:27;1.57;;;1.40;;
12603;SDS011;6367;52.508;13.284;2022-10-16T01:13:11;1.97;;;1.87;;
12603;SDS011;6367;52.508;13.284;2022-10-16T01:15:51;1.77;;;1.67;;
12603;SDS011;6367;52.508;13.284;2022-10-16T01:18:34;2.07;;;1.93;;
12603;SDS011;6367;52.508;13.284;2022-10-16T01:24:31;1.90;;;1.80;;
12603;SDS011;6367;52.508;13.284;2022-10-16T01:32:36;1.90;;;1.80;;
12603;SDS011;6367;52.508;13.284;2022-10-16T01:35:27;1.90;;;1.80;;
12603;SDS011;6367;52.508;13.284;2022-10-16T01:37:59;1.87;;;1.77;;
12603;SDS011;6367;52.508;13.284;2022-10-16T01:40:26;2.17;;;1.90;;
12603;SDS011;6367;52.508;13.284;2022-10-16T01:42:58;2.13;;;1.73;;
12603;SDS011;6367;52.508;13.284;2022-10-16T01:45:28;1.97;;;1.70;;
12603;SDS011;6367;52.508;13.284;2022-10-16T01:47:56;2.67;;;2.47;;
12603;SDS011;6367;52.508;13.284;2022-10-16T01:50:25;1.90;;;1.80;;
12603;SDS011;6367;52.508;13.284;2022-10-16T01:52:52;1.80;;;1.70;;
12603;SDS011;6367;52.508;13.284;2022-10-16T01:55:29;1.70;;;1.60;;
12603;SDS011;6367;52.508;13.284;2022-10-16T01:57:59;1.93;;;1.60;;
12603;SDS011;6367;52.508;13.284;2022-10-16T02:00:27;2.10;;;2.00;;
12603;SDS011;6367;52.508;13.284;2022-10-16T02:02:54;2.70;;;1.57;;
12603;SDS011;6367;52.508;13.284;2022-10-16T02:05:30;2.20;;;2.03;;
12603;SDS011;6367;52.508;13.284;2022-10-16T02:08:05;2.30;;;1.93;;
12603;SDS011;6367;52.508;13.284;2022-10-16T02:10:31;1.63;;;1.50;;
12603;SDS011;6367;52.508;13.284;2022-10-16T02:13:06;2.10;;;1.90;;
12603;SDS011;6367;52.508;13.284;2022-10-16T02:15:39;1.90;;;1.80;;
12603;SDS011;6367;52.508;13.284;2022-10-16T02:18:05;1.73;;;1.63;;
12603;SDS011;6367;52.508;13.284;2022-10-16T02:20:33;2.30;;;1.70;;
12603;SDS011;6367;52.508;13.284;2022-10-16T02:23:45;2.03;;;1.90;;
12603;SDS011;6367;52.508;13.284;2022-10-16T02:26:15;1.53;;;1.43;;
12603;SDS011;6367;52.508;13.284;2022-10-16T02:28:47;1.70;;;1.60;;
12603;SDS011;6367;52.508;13.284;2022-10-16T02:31:19;1.53;;;1.43;;
12603;SDS011;6367;52.508;13.284;2022-10-16T02:33:51;1.80;;;1.70;;
12603;SDS011;6367;52.508;13.284;2022-10-16T02:36:19;1.83;;;1.70;;
12603;SDS011;6367;52.508;13.284;2022-10-16T02:38:46;1.70;;;1.60;;
12603;SDS011;6367;52.508;13.284;2022-10-16T02:41:12;1.60;;;1.50;;
12603;SDS011;6367;52.508;13.284;2022-10-16T02:43:38;1.77;;;1.67;;
12603;SDS011;6367;52.508;13.284;2022-10-16T02:46:04;1.50;;;1.40;;
12603;SDS011;6367;52.508;13.284;2022-10-16T02:48:29;1.60;;;1.43;;
12603;SDS011;6367;52.508;13.284;2022-10-16T02:50:55;2.03;;;1.87;;
12603;SDS011;6367;52.508;13.284;2022-10-16T02:53:22;2.07;;;1.53;;
12603;SDS011;6367;52.508;13.284;2022-10-16T02:55:47;1.30;;;1.30;;
12603;SDS011;6367;52.508;13.284;2022-10-16T02:58:13;3.07;;;1.97;;
12603;SDS011;6367;52.508;13.284;2022-10-16T03:00:38;1.60;;;1.50;;
12603;SDS011;6367;52.508;13.284;2022-10-16T03:03:04;1.53;;;1.43;;
12603;SDS011;6367;52.508;13.284;2022-10-16T03:05:30;2.30;;;1.57;;
12603;SDS011;6367;52.508;13.284;2022-10-16T03:07:55;2.53;;;1.77;;
12603;SDS011;6367;52.508;13.284;2022-10-16T03:10:21;1.63;;;1.53;;
12603;SDS011;6367;52.508;13.284;2022-10-16T03:12:46;1.53;;;1.43;;
12603;SDS011;6367;52.508;13.284;2022-10-16T03:15:12;1.80;;;1.70;;
12603;SDS011;6367;52.508;13.284;2022-10-16T03:17:38;1.87;;;1.77;;
12603;SDS011;6367;52.508;13.284;2022-10-16T03:20:03;1.80;;;1.70;;
12603;SDS011;6367;52.508;13.284;2022-10-16T03:22:29;1.37;;;1.27;;
12603;SDS011;6367;52.508;13.284;2022-10-16T03:24:55;3.33;;;1.90;;
12603;SDS011;6367;52.508;13.284;2022-10-16T03:27:20;1.77;;;1.67;;
12603;SDS011;6367;52.508;13.284;2022-10-16T03:29:46;1.73;;;1.63;;
12603;SDS011;6367;52.508;13.284;2022-10-16T03:32:11;1.77;;;1.67;;
12603;SDS011;6367;52.508;13.284;2022-10-16T03:34:37;3.33;;;1.90;;
12603;SDS011;6367;52.508;13.284;2022-10-16T03:37:02;1.83;;;1.73;;
12603;SDS011;6367;52.508;13.284;2022-10-16T03:39:28;1.80;;;1.70;;
12603;SDS011;6367;52.508;13.284;2022-10-16T03:41:53;2.40;;;2.17;;
12603;SDS011;6367;52.508;13.284;2022-10-16T03:44:19;1.80;;;1.70;;
12603;SDS011;6367;52.508;13.284;2022-10-16T03:46:45;1.73;;;1.57;;
12603;SDS011;6367;52.508;13.284;2022-10-16T03:49:10;1.60;;;1.50;;
12603;SDS011;6367;52.508;13.284;2022-10-16T03:51:36;1.60;;;1.50;;
12603;SDS011;6367;52.508;13.284;2022-10-16T03:54:02;1.73;;;1.63;;
12603;SDS011;6367;52.508;13.284;2022-10-16T03:56:27;2.47;;;1.87;;
12603;SDS011;6367;52.508;13.284;2022-10-16T03:58:53;1.83;;;1.73;;
12603;SDS011;6367;52.508;13.284;2022-10-16T04:01:18;2.00;;;1.80;;
12603;SDS011;6367;52.508;13.284;2022-10-16T04:03:44;2.70;;;1.57;;
12603;SDS011;6367;52.508;13.284;2022-10-16T04:06:09;1.80;;;1.70;;
12603;SDS011;6367;52.508;13.284;2022-10-16T04:08:35;2.30;;;1.93;;
12603;SDS011;6367;52.508;13.284;2022-10-16T04:11:01;1.70;;;1.60;;
12603;SDS011;6367;52.508;13.284;2022-10-16T04:13:28;1.60;;;1.50;;
12603;SDS011;6367;52.508;13.284;2022-10-16T04:15:53;1.63;;;1.53;;
12603;SDS011;6367;52.508;13.284;2022-10-16T04:18:19;2.03;;;1.83;;
12603;SDS011;6367;52.508;13.284;2022-10-16T04:20:45;1.70;;;1.60;;
12603;SDS011;6367;52.508;13.284;2022-10-16T04:23:10;1.70;;;1.60;;
12603;SDS011;6367;52.508;13.284;2022-10-16T04:25:36;2.50;;;1.80;;
12603;SDS011;6367;52.508;13.284;2022-10-16T04:28:01;2.23;;;2.03;;
12603;SDS011;6367;52.508;13.284;2022-10-16T04:30:27;2.03;;;1.80;;
12603;SDS011;6367;52.508;13.284;2022-10-16T04:32:53;2.00;;;1.80;;
12603;SDS011;6367;52.508;13.284;2022-10-16T04:35:19;1.57;;;1.47;;
12603;SDS011;6367;52.508;13.284;2022-10-16T04:37:46;1.63;;;1.53;;
12603;SDS011;6367;52.508;13.284;2022-10-16T04:40:12;1.90;;;1.80;;
12603;SDS011;6367;52.508;13.284;2022-10-16T04:42:38;2.40;;;1.93;;
12603;SDS011;6367;52.508;13.284;2022-10-16T04:45:04;1.77;;;1.67;;
12603;SDS011;6367;52.508;13.284;2022-10-16T04:47:31;2.07;;;1.90;;
12603;SDS011;6367;52.508;13.284;2022-10-16T04:49:56;1.50;;;1.40;;
12603;SDS011;6367;52.508;13.284;2022-10-16T04:52:23;1.47;;;1.37;;
12603;SDS011;6367;52.508;13.284;2022-10-16T04:54:50;1.93;;;1.83;;
12603;SDS011;6367;52.508;13.284;2022-10-16T04:57:16;1.90;;;1.80;;
12603;SDS011;6367;52.508;13.284;2022-10-16T04:59:42;2.30;;;2.10;;
12603;SDS011;6367;52.508;13.284;2022-10-16T05:02:08;2.10;;;1.90;;
12603;SDS011;6367;52.508;13.284;2022-10-16T05:04:33;2.37;;;1.77;;
12603;SDS011;6367;52.508;13.284;2022-10-16T05:06:59;1.70;;;1.60;;
12603;SDS011;6367;52.508;13.284;2022-10-16T05:09:25;1.80;;;1.70;;
12603;SDS011;6367;52.508;13.284;2022-10-16T05:11:50;2.50;;;2.30;;
12603;SDS011;6367;52.508;13.284;2022-10-16T05:14:16;1.70;;;1.57;;
12603;SDS011;6367;52.508;13.284;2022-10-16T05:16:41;2.07;;;1.90;;
12603;SDS011;6367;52.508;13.284;2022-10-16T05:19:07;2.40;;;2.17;;
12603;SDS011;6367;52.508;13.284;2022-10-16T05:21:32;2.00;;;1.90;;
12603;SDS011;6367;52.508;13.284;2022-10-16T05:23:58;1.90;;;1.80;;
12603;SDS011;6367;52.508;13.284;2022-10-16T05:26:24;1.97;;;1.87;;
12603;SDS011;6367;52.508;13.284;2022-10-16T05:28:49;2.17;;;2.07;;
12603;SDS011;6367;52.508;13.284;2022-10-16T05:31:15;1.93;;;1.60;;
12603;SDS011;6367;52.508;13.284;2022-10-16T05:33:40;3.83;;;3.33;;
12603;SDS011;6367;52.508;13.284;2022-10-16T05:36:07;5.00;;;2.67;;
12603;SDS011;6367;52.508;13.284;2022-10-16T05:38:34;2.87;;;2.67;;
12603;SDS011;6367;52.508;13.284;2022-10-16T05:41:00;3.33;;;3.03;;
12603;SDS011;6367;52.508;13.284;2022-10-16T05:43:29;2.67;;;2.47;;
12603;SDS011;6367;52.508;13.284;2022-10-16T05:46:00;3.73;;;2.60;;
12603;SDS011;6367;52.508;13.284;2022-10-16T05:48:28;4.13;;;2.20;;
12603;SDS011;6367;52.508;13.284;2022-10-16T05:53:24;2.50;;;2.30;;
12603;SDS011;6367;52.508;13.284;2022-10-16T05:55:53;2.17;;;2.07;;
12603;SDS011;6367;52.508;13.284;2022-10-16T05:58:20;2.87;;;2.17;;
12603;SDS011;6367;52.508;13.284;2022-10-16T06:00:53;2.73;;;2.40;;
12603;SDS011;6367;52.508;13.284;2022-10-16T06:03:38;2.60;;;2.40;;
12603;SDS011;6367;52.508;13.284;2022-10-16T06:06:08;2.07;;;1.90;;
12603;SDS011;6367;52.508;13.284;2022-10-16T06:08:41;2.00;;;1.83;;
12603;SDS011;6367;52.508;13.284;2022-10-16T06:11:10;4.73;;;2.70;;
12603;SDS011;6367;52.508;13.284;2022-10-16T06:13:37;2.53;;;2.33;;
12603;SDS011;6367;52.508;13.284;2022-10-16T06:16:04;2.40;;;2.20;;
12603;SDS011;6367;52.508;13.284;2022-10-16T06:18:30;2.67;;;2.47;;
12603;SDS011;6367;52.508;13.284;2022-10-16T06:20:56;2.50;;;2.30;;
12603;SDS011;6367;52.508;13.284;2022-10-16T06:23:22;2.60;;;2.40;;
12603;SDS011;6367;52.508;13.284;2022-10-16T06:25:47;3.37;;;2.30;;
12603;SDS011;6367;52.508;13.284;2022-10-16T06:28:13;2.53;;;2.10;;
12603;SDS011;6367;52.508;13.284;2022-10-16T06:30:39;2.50;;;2.30;;
12603;SDS011;6367;52.508;13.284;2022-10-16T06:33:05;3.17;;;2.20;;
12603;SDS011;6367;52.508;13.284;2022-10-16T06:35:31;2.20;;;2.00;;
12603;SDS011;6367;52.508;13.284;2022-10-16T06:37:57;3.40;;;2.30;;
12603;SDS011;6367;52.508;13.284;2022-10-16T06:40:23;3.00;;;2.80;;
12603;SDS011;6367;52.508;13.284;2022-10-16T06:42:48;2.10;;;2.00;;
12603;SDS011;6367;52.508;13.284;2022-10-16T06:45:15;2.03;;;1.93;;
12603;SDS011;6367;52.508;13.284;2022-10-16T06:47:40;2.40;;;2.20;;
12603;SDS011;6367;52.508;13.284;2022-10-16T06:50:06;2.60;;;2.40;;
12603;SDS011;6367;52.508;13.284;2022-10-16T06:52:32;2.17;;;2.03;;
12603;SDS011;6367;52.508;13.284;2022-10-16T06:54:58;2.07;;;1.97;;
12603;SDS011;6367;52.508;13.284;2022-10-16T06:57:24;2.10;;;2.00;;
12603;SDS011;6367;52.508;13.284;2022-10-16T06:59:50;2.30;;;2.10;;
12603;SDS011;6367;52.508;13.284;2022-10-16T07:02:15;2.50;;;2.30;;
12603;SDS011;6367;52.508;13.284;2022-10-16T07:04:41;2.40;;;2.20;;
12603;SDS011;6367;52.508;13.284;2022-10-16T07:07:06;2.80;;;2.23;;
12603;SDS011;6367;52.508;13.284;2022-10-16T07:09:32;2.27;;;2.17;;
12603;SDS011;6367;52.508;13.284;2022-10-16T07:11:57;2.60;;;2.40;;
12603;SDS011;6367;52.508;13.284;2022-10-16T07:14:23;2.07;;;1.87;;
12603;SDS011;6367;52.508;13.284;2022-10-16T07:16:49;2.23;;;1.87;;
12603;SDS011;6367;52.508;13.284;2022-10-16T07:19:15;2.30;;;2.10;;
12603;SDS011;6367;52.508;13.284;2022-10-16T07:21:42;1.97;;;1.87;;
12603;SDS011;6367;52.508;13.284;2022-10-16T07:24:18;1.73;;;1.63;;
12603;SDS011;6367;52.508;13.284;2022-10-16T07:26:44;3.13;;;2.10;;
12603;SDS011;6367;52.508;13.284;2022-10-16T07:29:12;3.30;;;2.30;;
12603;SDS011;6367;52.508;13.284;2022-10-16T07:31:46;3.03;;;2.60;;
12603;SDS011;6367;52.508;13.284;2022-10-16T07:34:16;1.90;;;1.77;;
12603;SDS011;6367;52.508;13.284;2022-10-16T07:36:43;2.60;;;2.00;;
12603;SDS011;6367;52.508;13.284;2022-10-16T07:39:22;2.07;;;1.87;;
12603;SDS011;6367;52.508;13.284;2022-10-16T07:41:47;2.03;;;1.73;;
12603;SDS011;6367;52.508;13.284;2022-10-16T07:44:13;1.70;;;1.60;;
12603;SDS011;6367;52.508;13.284;2022-10-16T07:46:40;2.37;;;1.77;;
12603;SDS011;6367;52.508;13.284;2022-10-16T07:49:05;2.43;;;2.23;;
12603;SDS011;6367;52.508;13.284;2022-10-16T07:51:31;2.07;;;1.60;;
12603;SDS011;6367;52.508;13.284;2022-10-16T07:53:57;1.80;;;1.70;;
12603;SDS011;6367;52.508;13.284;2022-10-16T07:56:23;2.27;;;1.43;;
12603;SDS011;6367;52.508;13.284;2022-10-16T07:58:49;3.40;;;1.90;;
12603;SDS011;6367;52.508;13.284;2022-10-16T08:01:16;1.90;;;1.80;;
12603;SDS011;6367;52.508;13.284;2022-10-16T08:03:52;1.70;;;1.60;;
12603;SDS011;6367;52.508;13.284;2022-10-16T08:06:18;1.40;;;1.30;;
12603;SDS011;6367;52.508;13.284;2022-10-16T08:08:46;1.90;;;1.80;;
12603;SDS011;6367;52.508;13.284;2022-10-16T08:11:12;1.90;;;1.80;;
12603;SDS011;6367;52.508;13.284;2022-10-16T08:13:39;1.67;;;1.40;;
12603;SDS011;6367;52.508;13.284;2022-10-16T08:16:04;1.57;;;1.47;;
12603;SDS011;6367;52.508;13.284;2022-10-16T08:18:32;3.07;;;1.97;;
12603;SDS011;6367;52.508;13.284;2022-10-16T08:21:02;2.07;;;1.60;;
12603;SDS011;6367;52.508;13.284;2022-10-16T08:23:29;1.80;;;1.70;;
12603;SDS011;6367;52.508;13.284;2022-10-16T08:25:55;1.40;;;1.30;;
12603;SDS011;6367;52.508;13.284;2022-10-16T08:28:26;1.70;;;1.60;;
12603;SDS011;6367;52.508;13.284;2022-10-16T08:30:52;2.30;;;1.77;;
12603;SDS011;6367;52.508;13.284;2022-10-16T08:33:18;1.40;;;1.30;;
12603;SDS011;6367;52.508;13.284;2022-10-16T08:35:49;2.70;;;1.60;;
12603;SDS011;6367;52.508;13.284;2022-10-16T08:38:16;1.80;;;1.60;;
12603;SDS011;6367;52.508;13.284;2022-10-16T08:40:41;1.50;;;1.40;;
12603;SDS011;6367;52.508;13.284;2022-10-16T08:48:52;1.53;;;1.43;;
12603;SDS011;6367;52.508;13.284;2022-10-16T08:51:26;1.50;;;1.40;;
12603;SDS011;6367;52.508;13.284;2022-10-16T08:53:57;2.33;;;1.30;;
12603;SDS011;6367;52.508;13.284;2022-10-16T08:56:26;2.00;;;1.90;;
12603;SDS011;6367;52.508;13.284;2022-10-16T08:58:52;1.80;;;1.70;;
12603;SDS011;6367;52.508;13.284;2022-10-16T09:01:19;2.00;;;1.90;;
12603;SDS011;6367;52.508;13.284;2022-10-16T09:03:52;1.97;;;1.47;;
12603;SDS011;6367;52.508;13.284;2022-10-16T09:12:01;4.10;;;1.50;;
12603;SDS011;6367;52.508;13.284;2022-10-16T09:22:42;1.40;;;1.30;;
12603;SDS011;6367;52.508;13.284;2022-10-16T09:25:11;1.50;;;1.40;;
12603;SDS011;6367;52.508;13.284;2022-10-16T09:27:39;1.70;;;1.60;;
12603;SDS011;6367;52.508;13.284;2022-10-16T09:30:15;1.03;;;1.03;;
12603;SDS011;6367;52.508;13.284;2022-10-16T09:32:43;1.33;;;1.23;;
12603;SDS011;6367;52.508;13.284;2022-10-16T09:35:17;1.20;;;1.10;;
12603;SDS011;6367;52.508;13.284;2022-10-16T09:37:52;1.53;;;1.30;;
12603;SDS011;6367;52.508;13.284;2022-10-16T09:40:26;1.30;;;1.20;;
12603;SDS011;6367;52.508;13.284;2022-10-16T09:48:33;1.37;;;1.27;;
12603;SDS011;6367;52.508;13.284;2022-10-16T09:51:19;1.40;;;1.30;;
12603;SDS011;6367;52.508;13.284;2022-10-16T09:53:48;3.30;;;1.60;;
12603;SDS011;6367;52.508;13.284;2022-10-16T09:56:24;1.73;;;1.63;;
12603;SDS011;6367;52.508;13.284;2022-10-16T09:58:51;1.60;;;1.30;;
12603;SDS011;6367;52.508;13.284;2022-10-16T10:01:17;1.30;;;1.20;;
12603;SDS011;6367;52.508;13.284;2022-10-16T10:03:45;2.23;;;1.23;;
12603;SDS011;6367;52.508;13.284;2022-10-16T10:08:59;1.30;;;1.20;;
12603;SDS011;6367;52.508;13.284;2022-10-16T10:11:38;1.40;;;1.30;;
12603;SDS011;6367;52.508;13.284;2022-10-16T10:14:37;1.53;;;1.30;;
12603;SDS011;6367;52.508;13.284;2022-10-16T10:17:14;1.07;;;0.97;;
12603;SDS011;6367;52.508;13.284;2022-10-16T10:19:49;1.27;;;1.17;;
12603;SDS011;6367;52.508;13.284;2022-10-16T10:30:15;3.10;;;0.97;;
12603;SDS011;6367;52.508;13.284;2022-10-16T10:33:05;2.10;;;1.50;;
12603;SDS011;6367;52.508;13.284;2022-10-16T10:38:39;2.50;;;1.60;;
12603;SDS011;6367;52.508;13.284;2022-10-16T10:44:34;1.30;;;1.20;;
12603;SDS011;6367;52.508;13.284;2022-10-16T10:49:40;1.37;;;1.27;;
12603;SDS011;6367;52.508;13.284;2022-10-16T10:55:36;1.90;;;1.10;;
12603;SDS011;6367;52.508;13.284;2022-10-16T11:01:35;1.90;;;1.73;;
12603;SDS011;6367;52.508;13.284;2022-10-16T11:04:36;1.90;;;1.30;;
12603;SDS011;6367;52.508;13.284;2022-10-16T11:07:19;1.53;;;1.10;;
12603;SDS011;6367;52.508;13.284;2022-10-16T11:09:58;1.20;;;1.10;;
12603;SDS011;6367;52.508;13.284;2022-10-16T11:12:31;1.57;;;1.00;;
12603;SDS011;6367;52.508;13.284;2022-10-16T11:15:04;1.23;;;1.00;;
12603;SDS011;6367;52.508;13.284;2022-10-16T11:17:50;1.33;;;1.07;;
12603;SDS011;6367;52.508;13.284;2022-10-16T11:20:29;0.97;;;0.97;;
12603;SDS011;6367;52.508;13.284;2022-10-16T11:23:00;1.00;;;1.00;;
12603;SDS011;6367;52.508;13.284;2022-10-16T11:25:36;1.20;;;1.10;;
12603;SDS011;6367;52.508;13.284;2022-10-16T11:30:47;1.53;;;1.43;;
12603;SDS011;6367;52.508;13.284;2022-10-16T11:33:51;1.23;;;1.13;;
12603;SDS011;6367;52.508;13.284;2022-10-16T11:36:47;1.70;;;1.20;;
12603;SDS011;6367;52.508;13.284;2022-10-16T11:39:34;1.30;;;1.20;;
12603;SDS011;6367;52.508;13.284;2022-10-16T11:42:05;1.10;;;1.00;;
12603;SDS011;6367;52.508;13.284;2022-10-16T11:53:11;0.90;;;0.80;;
12603;SDS011;6367;52.508;13.284;2022-10-16T11:55:39;1.50;;;0.90;;
12603;SDS011;6367;52.508;13.284;2022-10-16T12:03:48;1.33;;;1.23;;
12603;SDS011;6367;52.508;13.284;2022-10-16T12:06:23;1.30;;;1.20;;
12603;SDS011;6367;52.508;13.284;2022-10-16T12:09:02;1.10;;;1.00;;
12603;SDS011;6367;52.508;13.284;2022-10-16T12:14:06;1.10;;;1.10;;
12603;SDS011;6367;52.508;13.284;2022-10-16T12:16:38;1.63;;;1.00;;
12603;SDS011;6367;52.508;13.284;2022-10-16T12:19:16;1.13;;;1.03;;
12603;SDS011;6367;52.508;13.284;2022-10-16T12:21:42;1.10;;;1.00;;
12603;SDS011;6367;52.508;13.284;2022-10-16T12:26:54;0.87;;;0.80;;
12603;SDS011;6367;52.508;13.284;2022-10-16T12:29:28;1.17;;;1.03;;
12603;SDS011;6367;52.508;13.284;2022-10-16T12:32:04;1.23;;;1.13;;
12603;SDS011;6367;52.508;13.284;2022-10-16T12:35:05;1.10;;;1.00;;
12603;SDS011;6367;52.508;13.284;2022-10-16T12:37:43;1.13;;;1.03;;
12603;SDS011;6367;52.508;13.284;2022-10-16T12:40:43;1.13;;;1.03;;
12603;SDS011;6367;52.508;13.284;2022-10-16T12:45:46;0.70;;;0.70;;
12603;SDS011;6367;52.508;13.284;2022-10-16T12:48:19;1.70;;;1.10;;
12603;SDS011;6367;52.508;13.284;2022-10-16T12:50:46;1.17;;;1.07;;
12603;SDS011;6367;52.508;13.284;2022-10-16T12:53:22;1.37;;;0.90;;
12603;SDS011;6367;52.508;13.284;2022-10-16T12:58:21;1.10;;;0.90;;
12603;SDS011;6367;52.508;13.284;2022-10-16T13:01:04;1.17;;;1.00;;
12603;SDS011;6367;52.508;13.284;2022-10-16T13:03:43;1.00;;;0.90;;
12603;SDS011;6367;52.508;13.284;2022-10-16T13:11:41;1.73;;;1.00;;
12603;SDS011;6367;52.508;13.284;2022-10-16T13:17:09;0.90;;;0.77;;
12603;SDS011;6367;52.508;13.284;2022-10-16T13:22:55;0.80;;;0.80;;
12603;SDS011;6367;52.508;13.284;2022-10-16T13:25:28;0.80;;;0.80;;
12603;SDS011;6367;52.508;13.284;2022-10-16T13:28:06;0.80;;;0.80;;
12603;SDS011;6367;52.508;13.284;2022-10-16T13:30:40;0.80;;;0.80;;
12603;SDS011;6367;52.508;13.284;2022-10-16T13:33:17;1.10;;;0.90;;
12603;SDS011;6367;52.508;13.284;2022-10-16T13:35:53;4.57;;;1.00;;
12603;SDS011;6367;52.508;13.284;2022-10-16T13:38:21;0.90;;;0.90;;
12603;SDS011;6367;52.508;13.284;2022-10-16T13:40:52;3.90;;;0.80;;
12603;SDS011;6367;52.508;13.284;2022-10-16T13:43:19;0.80;;;0.80;;
12603;SDS011;6367;52.508;13.284;2022-10-16T13:46:13;0.80;;;0.80;;
12603;SDS011;6367;52.508;13.284;2022-10-16T13:48:40;1.40;;;0.80;;
12603;SDS011;6367;52.508;13.284;2022-10-16T13:53:43;1.43;;;0.80;;
12603;SDS011;6367;52.508;13.284;2022-10-16T13:56:14;1.57;;;0.70;;
12603;SDS011;6367;52.508;13.284;2022-10-16T13:58:41;1.03;;;0.70;;
12603;SDS011;6367;52.508;13.284;2022-10-16T14:01:15;1.20;;;0.73;;
12603;SDS011;6367;52.508;13.284;2022-10-16T14:03:43;0.80;;;0.80;;
12603;SDS011;6367;52.508;13.284;2022-10-16T14:06:14;0.70;;;0.70;;
12603;SDS011;6367;52.508;13.284;2022-10-16T14:08:43;0.87;;;0.83;;
12603;SDS011;6367;52.508;13.284;2022-10-16T14:11:11;0.70;;;0.70;;
12603;SDS011;6367;52.508;13.284;2022-10-16T14:13:38;1.07;;;1.03;;
12603;SDS011;6367;52.508;13.284;2022-10-16T14:16:15;0.70;;;0.70;;
12603;SDS011;6367;52.508;13.284;2022-10-16T14:18:44;0.83;;;0.83;;
12603;SDS011;6367;52.508;13.284;2022-10-16T14:21:15;2.17;;;0.93;;
12603;SDS011;6367;52.508;13.284;2022-10-16T14:23:42;0.80;;;0.80;;
12603;SDS011;6367;52.508;13.284;2022-10-16T14:28:33;1.17;;;0.73;;
12603;SDS011;6367;52.508;13.284;2022-10-16T14:31:01;1.33;;;1.00;;
12603;SDS011;6367;52.508;13.284;2022-10-16T14:33:45;1.07;;;0.80;;
12603;SDS011;6367;52.508;13.284;2022-10-16T14:38:48;0.73;;;0.70;;
12603;SDS011;6367;52.508;13.284;2022-10-16T14:41:40;0.70;;;0.70;;
12603;SDS011;6367;52.508;13.284;2022-10-16T14:44:10;1.23;;;0.83;;
12603;SDS011;6367;52.508;13.284;2022-10-16T14:46:37;1.17;;;0.90;;
12603;SDS011;6367;52.508;13.284;2022-10-16T14:51:36;1.20;;;1.10;;
12603;SDS011;6367;52.508;13.284;2022-10-16T14:54:07;0.90;;;0.90;;
12603;SDS011;6367;52.508;13.284;2022-10-16T14:56:36;0.80;;;0.80;;
12603;SDS011;6367;52.508;13.284;2022-10-16T15:02:09;1.80;;;0.90;;
12603;SDS011;6367;52.508;13.284;2022-10-16T15:04:56;1.00;;;0.90;;
12603;SDS011;6367;52.508;13.284;2022-10-16T15:07:22;1.20;;;1.10;;
12603;SDS011;6367;52.508;13.284;2022-10-16T15:09:48;1.83;;;1.10;;
12603;SDS011;6367;52.508;13.284;2022-10-16T15:12:14;1.43;;;1.00;;
12603;SDS011;6367;52.508;13.284;2022-10-16T15:14:39;0.70;;;0.70;;
12603;SDS011;6367;52.508;13.284;2022-10-16T15:17:05;1.10;;;1.00;;
12603;SDS011;6367;52.508;13.284;2022-10-16T15:19:33;0.80;;;0.80;;
12603;SDS011;6367;52.508;13.284;2022-10-16T15:21:59;1.50;;;1.10;;
12603;SDS011;6367;52.508;13.284;2022-10-16T15:24:24;1.10;;;1.00;;
12603;SDS011;6367;52.508;13.284;2022-10-16T15:26:50;0.90;;;0.90;;
12603;SDS011;6367;52.508;13.284;2022-10-16T15:29:15;0.80;;;0.80;;
12603;SDS011;6367;52.508;13.284;2022-10-16T15:31:41;1.30;;;0.80;;
12603;SDS011;6367;52.508;13.284;2022-10-16T15:34:12;1.00;;;0.90;;
12603;SDS011;6367;52.508;13.284;2022-10-16T15:36:38;1.00;;;0.80;;
12603;SDS011;6367;52.508;13.284;2022-10-16T15:39:09;1.20;;;1.10;;
12603;SDS011;6367;52.508;13.284;2022-10-16T15:41:38;1.00;;;0.93;;
12603;SDS011;6367;52.508;13.284;2022-10-16T15:44:04;1.07;;;1.00;;
12603;SDS011;6367;52.508;13.284;2022-10-16T15:46:30;1.63;;;0.93;;
12603;SDS011;6367;52.508;13.284;2022-10-16T15:48:56;1.00;;;0.90;;
12603;SDS011;6367;52.508;13.284;2022-10-16T15:51:23;1.37;;;1.10;;
12603;SDS011;6367;52.508;13.284;2022-10-16T15:53:49;0.90;;;0.90;;
12603;SDS011;6367;52.508;13.284;2022-10-16T15:56:16;1.10;;;1.00;;
12603;SDS011;6367;52.508;13.284;2022-10-16T15:58:42;1.27;;;1.00;;
12603;SDS011;6367;52.508;13.284;2022-10-16T16:01:08;1.30;;;1.20;;
12603;SDS011;6367;52.508;13.284;2022-10-16T16:03:35;1.13;;;1.13;;
12603;SDS011;6367;52.508;13.284;2022-10-16T16:06:05;1.37;;;1.20;;
12603;SDS011;6367;52.508;13.284;2022-10-16T16:08:33;1.20;;;1.10;;
12603;SDS011;6367;52.508;13.284;2022-10-16T16:11:09;1.37;;;1.10;;
12603;SDS011;6367;52.508;13.284;2022-10-16T16:13:36;3.33;;;1.40;;
12603;SDS011;6367;52.508;13.284;2022-10-16T16:16:06;1.20;;;1.10;;
12603;SDS011;6367;52.508;13.284;2022-10-16T16:18:36;1.43;;;1.20;;
12603;SDS011;6367;52.508;13.284;2022-10-16T16:21:02;1.33;;;1.20;;
12603;SDS011;6367;52.508;13.284;2022-10-16T16:23:28;1.60;;;1.27;;
12603;SDS011;6367;52.508;13.284;2022-10-16T16:28:35;1.23;;;1.10;;
12603;SDS011;6367;52.508;13.284;2022-10-16T16:31:02;1.40;;;1.30;;
12603;SDS011;6367;52.508;13.284;2022-10-16T16:33:28;1.07;;;0.97;;
12603;SDS011;6367;52.508;13.284;2022-10-16T16:35:58;2.03;;;1.20;;
12603;SDS011;6367;52.508;13.284;2022-10-16T16:38:25;1.30;;;1.20;;
12603;SDS011;6367;52.508;13.284;2022-10-16T16:40:51;1.40;;;1.30;;
12603;SDS011;6367;52.508;13.284;2022-10-16T16:43:18;1.13;;;1.03;;
12603;SDS011;6367;52.508;13.284;2022-10-16T16:45:44;1.40;;;1.30;;
12603;SDS011;6367;52.508;13.284;2022-10-16T16:48:12;1.50;;;1.40;;
12603;SDS011;6367;52.508;13.284;2022-10-16T16:50:38;1.57;;;1.47;;
12603;SDS011;6367;52.508;13.284;2022-10-16T16:53:04;1.60;;;1.50;;
12603;SDS011;6367;52.508;13.284;2022-10-16T16:55:29;1.63;;;1.50;;
12603;SDS011;6367;52.508;13.284;2022-10-16T16:57:55;2.67;;;1.90;;
12603;SDS011;6367;52.508;13.284;2022-10-16T17:00:21;1.53;;;1.43;;